createdAt,value
2023-04-29T00:00:38.852Z,13.90
2023-04-29T00:03:11.591Z,13.90
2023-04-29T00:05:44.857Z,13.90
2023-04-29T00:08:17.331Z,13.90
2023-04-29T00:10:50.069Z,13.90
2023-04-29T00:13:22.632Z,13.90
2023-04-29T00:15:55.292Z,13.90
2023-04-29T00:18:27.507Z,13.90
2023-04-29T00:20:59.735Z,13.90
2023-04-29T00:23:33.510Z,13.90
2023-04-29T00:26:05.760Z,13.80
2023-04-29T00:28:37.991Z,13.80
2023-04-29T00:31:10.528Z,13.80
2023-04-29T00:33:42.753Z,13.80
2023-04-29T00:36:15.559Z,13.80
2023-04-29T00:38:47.663Z,13.70
2023-04-29T00:41:20.329Z,13.70
2023-04-29T00:43:52.859Z,13.70
2023-04-29T00:46:25.022Z,13.70
2023-04-29T00:48:57.526Z,13.60
2023-04-29T00:51:29.869Z,13.70
2023-04-29T00:54:02.475Z,13.60
2023-04-29T00:56:37.696Z,13.60
2023-04-29T00:59:12.709Z,13.60
2023-04-29T01:01:47.022Z,13.60
2023-04-29T01:04:19.873Z,13.60
2023-04-29T01:07:07.719Z,13.60
2023-04-29T01:10:09.607Z,13.60
2023-04-29T01:13:26.845Z,13.50
2023-04-29T01:16:21.490Z,13.50
2023-04-29T01:19:41.428Z,13.50
2023-04-29T01:22:21.701Z,13.50
2023-04-29T01:24:55.012Z,13.50
2023-04-29T01:27:33.443Z,13.40
2023-04-29T01:30:24.003Z,13.50
2023-04-29T01:33:23.951Z,13.50
2023-04-29T01:36:46.027Z,13.50
2023-04-29T01:39:45.445Z,13.50
2023-04-29T01:42:39.941Z,13.50
2023-04-29T01:45:21.850Z,13.50
2023-04-29T01:47:56.370Z,13.50
2023-04-29T01:50:29.688Z,13.50
2023-04-29T01:53:01.846Z,13.40
2023-04-29T01:55:33.932Z,13.50
2023-04-29T01:58:06.224Z,13.50
2023-04-29T02:00:38.972Z,13.40
2023-04-29T02:03:12.334Z,13.40
2023-04-29T02:05:44.407Z,13.30
2023-04-29T02:08:17.880Z,13.30
2023-04-29T02:10:54.602Z,13.30
2023-04-29T02:13:27.935Z,13.30
2023-04-29T02:16:11.310Z,13.20
2023-04-29T02:18:44.992Z,13.20
2023-04-29T02:21:17.102Z,13.10
2023-04-29T02:23:49.244Z,13.10
2023-04-29T02:26:22.350Z,13.10
2023-04-29T02:28:56.617Z,13.00
2023-04-29T02:31:29.385Z,13.00
2023-04-29T02:34:02.180Z,13.00
2023-04-29T02:36:34.986Z,12.90
2023-04-29T02:39:07.182Z,12.90
2023-04-29T02:41:39.318Z,12.80
2023-04-29T02:44:12.485Z,12.80
2023-04-29T02:46:45.811Z,12.80
2023-04-29T02:49:18.744Z,12.80
2023-04-29T02:51:50.829Z,12.80
2023-04-29T02:54:23.033Z,12.80
2023-04-29T02:56:55.041Z,12.80
2023-04-29T02:59:27.754Z,12.80
2023-04-29T03:01:59.694Z,12.80
2023-04-29T03:04:33.285Z,12.70
2023-04-29T03:07:05.762Z,12.70
2023-04-29T03:09:39.202Z,12.70
2023-04-29T03:12:11.691Z,12.60
2023-04-29T03:14:43.830Z,12.60
2023-04-29T03:17:15.915Z,12.50
2023-04-29T03:19:48.575Z,12.50
2023-04-29T03:22:20.633Z,12.50
2023-04-29T03:24:52.632Z,12.50
2023-04-29T03:27:24.948Z,12.40
2023-04-29T03:29:57.134Z,12.40
2023-04-29T03:32:29.108Z,12.30
2023-04-29T03:35:01.979Z,12.30
2023-04-29T03:37:34.209Z,12.30
2023-04-29T03:40:07.207Z,12.30
2023-04-29T03:42:39.662Z,12.30
2023-04-29T03:45:14.379Z,12.20
2023-04-29T03:47:46.626Z,12.20
2023-04-29T03:50:19.176Z,12.10
2023-04-29T03:52:51.444Z,12.10
2023-04-29T03:55:23.987Z,12.10
2023-04-29T03:57:56.917Z,12.10
2023-04-29T04:00:31.321Z,12.00
2023-04-29T04:03:05.498Z,12.00
2023-04-29T04:05:38.446Z,12.00
2023-04-29T04:08:11.166Z,12.00
2023-04-29T04:10:43.306Z,11.90
2023-04-29T04:13:15.589Z,11.90
2023-04-29T04:15:52.229Z,11.90
2023-04-29T04:18:24.720Z,11.90
2023-04-29T04:20:56.850Z,11.80
2023-04-29T04:23:28.825Z,11.80
2023-04-29T04:26:00.946Z,11.80
2023-04-29T04:28:33.401Z,11.80
2023-04-29T04:31:05.650Z,11.80
2023-04-29T04:33:37.770Z,11.80
2023-04-29T04:36:09.841Z,11.80
2023-04-29T04:38:42.052Z,11.90
2023-04-29T04:41:14.098Z,11.90
2023-04-29T04:43:46.232Z,11.90
2023-04-29T04:46:18.669Z,11.90
2023-04-29T04:48:51.124Z,11.90
2023-04-29T04:51:23.143Z,11.90
2023-04-29T04:53:55.088Z,11.90
2023-04-29T04:56:27.054Z,11.90
2023-04-29T04:58:59.007Z,11.90
2023-04-29T05:01:31.009Z,11.90
2023-04-29T05:04:03.509Z,11.90
2023-04-29T05:06:35.904Z,11.90
2023-04-29T05:09:08.312Z,11.90
2023-04-29T05:11:41.877Z,12.00
2023-04-29T05:14:14.115Z,12.10
2023-04-29T05:16:46.826Z,12.10
2023-04-29T05:19:19.784Z,12.20
2023-04-29T05:21:52.157Z,12.20
2023-04-29T05:24:24.050Z,12.30
2023-04-29T05:26:57.262Z,12.30
2023-04-29T05:29:29.439Z,12.40
2023-04-29T05:32:01.685Z,12.50
2023-04-29T05:34:33.869Z,12.70
2023-04-29T05:37:05.919Z,12.80
2023-04-29T05:39:37.996Z,12.90
2023-04-29T05:42:09.990Z,13.00
2023-04-29T05:44:42.369Z,13.00
2023-04-29T05:47:14.706Z,13.00
2023-04-29T05:49:47.144Z,13.10
2023-04-29T05:52:19.408Z,13.10
2023-04-29T05:54:51.769Z,13.10
2023-04-29T05:57:23.875Z,13.20
2023-04-29T05:59:56.304Z,13.30
2023-04-29T06:02:31.251Z,13.40
2023-04-29T06:05:04.937Z,13.60
2023-04-29T06:07:38.648Z,13.80
2023-04-29T06:10:11.041Z,14.00
2023-04-29T06:12:43.350Z,14.40
2023-04-29T06:15:15.682Z,14.70
2023-04-29T06:17:48.921Z,14.90
2023-04-29T06:20:21.189Z,14.90
2023-04-29T06:22:53.387Z,14.80
2023-04-29T06:25:25.676Z,14.70
2023-04-29T06:27:58.420Z,14.50
2023-04-29T06:30:30.611Z,14.30
2023-04-29T06:33:02.879Z,14.20
2023-04-29T06:35:39.130Z,14.20
2023-04-29T06:38:12.215Z,14.30
2023-04-29T06:40:44.289Z,14.60
2023-04-29T06:43:16.607Z,14.80
2023-04-29T06:45:48.823Z,14.80
2023-04-29T06:48:21.158Z,14.80
2023-04-29T06:50:58.221Z,14.90
2023-04-29T06:53:30.917Z,15.00
2023-04-29T06:56:03.269Z,15.10
2023-04-29T06:58:37.190Z,15.30
2023-04-29T07:01:09.465Z,15.40
2023-04-29T07:03:42.498Z,15.60
2023-04-29T07:06:14.752Z,15.70
2023-04-29T07:08:46.848Z,15.70
2023-04-29T07:11:19.286Z,15.50
2023-04-29T07:13:53.354Z,15.30
2023-04-29T07:16:26.851Z,15.20
2023-04-29T07:18:59.626Z,15.00
2023-04-29T07:21:32.109Z,14.90
2023-04-29T07:24:05.116Z,14.90
2023-04-29T07:26:37.657Z,14.90
2023-04-29T07:29:11.346Z,15.00
2023-04-29T07:31:43.593Z,15.40
2023-04-29T07:34:15.768Z,15.90
2023-04-29T07:36:47.842Z,16.30
2023-04-29T07:39:20.004Z,16.40
2023-04-29T07:41:52.236Z,16.20
2023-04-29T07:44:24.436Z,16.10
2023-04-29T07:46:56.964Z,15.80
2023-04-29T07:49:29.294Z,15.60
2023-04-29T07:52:02.490Z,15.30
2023-04-29T07:54:39.609Z,15.10
2023-04-29T07:57:11.936Z,15.00
2023-04-29T07:59:44.186Z,14.90
2023-04-29T08:02:16.771Z,14.80
2023-04-29T08:04:51.604Z,14.70
2023-04-29T08:07:26.791Z,14.60
2023-04-29T08:09:59.296Z,14.50
2023-04-29T08:12:32.671Z,14.40
2023-04-29T08:15:09.786Z,14.40
2023-04-29T08:17:43.859Z,14.40
2023-04-29T08:20:18.645Z,14.30
2023-04-29T08:22:51.322Z,14.30
2023-04-29T08:25:24.427Z,14.30
2023-04-29T08:27:58.009Z,14.30
2023-04-29T08:30:31.117Z,14.30
2023-04-29T08:33:04.329Z,14.30
2023-04-29T08:35:38.150Z,14.50
2023-04-29T08:38:11.877Z,14.40
2023-04-29T08:40:47.232Z,14.50
2023-04-29T08:43:21.818Z,14.50
2023-04-29T08:45:55.487Z,14.50
2023-04-29T08:48:30.566Z,14.50
2023-04-29T08:51:04.522Z,14.50
2023-04-29T08:53:37.551Z,14.50
2023-04-29T08:56:20.538Z,14.50
2023-04-29T08:58:55.313Z,14.60
2023-04-29T09:01:31.166Z,14.80
2023-04-29T09:04:30.345Z,14.80
2023-04-29T09:07:18.723Z,14.90
2023-04-29T09:09:53.575Z,15.10
2023-04-29T09:12:27.630Z,15.20
2023-04-29T09:15:01.491Z,15.30
2023-04-29T09:17:48.690Z,15.40
2023-04-29T09:20:21.566Z,15.40
2023-04-29T09:23:02.019Z,15.50
2023-04-29T09:25:36.580Z,15.50
2023-04-29T09:28:17.205Z,15.60
2023-04-29T09:30:50.774Z,15.60
2023-04-29T09:33:22.896Z,15.60
2023-04-29T09:36:01.106Z,15.70
2023-04-29T09:38:33.739Z,15.80
2023-04-29T09:41:12.338Z,15.70
2023-04-29T09:44:07.406Z,15.80
2023-04-29T09:46:40.885Z,15.80
2023-04-29T09:49:26.590Z,15.80
2023-04-29T09:52:04.102Z,15.90
2023-04-29T09:54:42.002Z,16.00
2023-04-29T09:57:15.894Z,16.00
2023-04-29T09:59:49.833Z,16.00
2023-04-29T10:02:26.181Z,16.00
2023-04-29T10:04:59.353Z,15.90
2023-04-29T10:07:32.069Z,16.00
2023-04-29T10:10:06.409Z,16.00
2023-04-29T10:12:42.508Z,16.10
2023-04-29T10:15:42.399Z,16.30
2023-04-29T10:18:22.265Z,16.60
2023-04-29T10:21:03.926Z,16.90
2023-04-29T10:23:39.081Z,17.00
2023-04-29T10:26:15.090Z,17.20
2023-04-29T10:28:52.111Z,17.30
2023-04-29T10:31:28.334Z,17.40
2023-04-29T10:34:02.432Z,17.40
2023-04-29T10:36:36.746Z,17.30
2023-04-29T10:39:17.104Z,17.30
2023-04-29T10:41:58.497Z,17.20
2023-04-29T10:44:31.394Z,17.10
2023-04-29T10:47:21.559Z,17.10
2023-04-29T10:50:04.584Z,17.00
2023-04-29T10:52:53.090Z,17.10
2023-04-29T10:55:26.377Z,17.00
2023-04-29T10:57:58.685Z,17.20
2023-04-29T11:00:33.833Z,17.30
2023-04-29T11:03:08.546Z,17.20
2023-04-29T11:06:09.391Z,17.20
2023-04-29T11:08:43.040Z,17.20
2023-04-29T11:11:16.018Z,17.20
2023-04-29T11:13:48.721Z,17.20
2023-04-29T11:16:28.311Z,17.30
2023-04-29T11:19:12.261Z,17.30
2023-04-29T11:21:47.347Z,17.30
2023-04-29T11:24:19.854Z,17.20
2023-04-29T11:26:52.595Z,17.20
2023-04-29T11:29:25.762Z,17.00
2023-04-29T11:32:02.649Z,17.10
2023-04-29T11:34:35.050Z,17.10
2023-04-29T11:37:07.089Z,17.10
2023-04-29T11:39:40.281Z,17.20
2023-04-29T11:42:12.444Z,17.10
2023-04-29T11:44:45.705Z,17.10
2023-04-29T11:47:18.088Z,17.10
2023-04-29T11:49:50.464Z,17.10
2023-04-29T11:52:22.643Z,17.10
2023-04-29T11:54:55.118Z,17.20
2023-04-29T11:57:29.066Z,17.20
2023-04-29T12:00:01.363Z,17.30
2023-04-29T12:02:35.327Z,17.40
2023-04-29T12:05:08.850Z,17.40
2023-04-29T12:07:41.525Z,17.40
2023-04-29T12:10:14.139Z,17.40
2023-04-29T12:12:47.536Z,17.30
2023-04-29T12:15:20.149Z,17.30
2023-04-29T12:17:52.595Z,17.30
2023-04-29T12:20:24.911Z,17.40
2023-04-29T12:22:59.323Z,17.70
2023-04-29T12:25:55.250Z,17.70
2023-04-29T12:28:30.690Z,17.90
2023-04-29T12:31:04.687Z,18.10
2023-04-29T12:33:37.454Z,18.20
2023-04-29T12:36:18.453Z,18.10
2023-04-29T12:38:50.714Z,18.10
2023-04-29T12:41:42.210Z,18.10
2023-04-29T12:44:16.069Z,18.00
2023-04-29T12:46:48.234Z,18.00
2023-04-29T12:49:20.760Z,17.90
2023-04-29T12:51:55.184Z,17.90
2023-04-29T12:54:27.443Z,18.10
2023-04-29T12:57:00.842Z,18.20
2023-04-29T12:59:34.449Z,18.10
2023-04-29T13:02:07.644Z,18.00
2023-04-29T13:04:40.514Z,18.00
2023-04-29T13:07:13.526Z,18.10
2023-04-29T13:09:45.712Z,18.10
2023-04-29T13:12:17.974Z,18.00
2023-04-29T13:14:51.312Z,18.00
2023-04-29T13:17:23.940Z,17.90
2023-04-29T13:19:56.836Z,17.70
2023-04-29T13:22:29.394Z,17.70
2023-04-29T13:25:02.101Z,17.80
2023-04-29T13:27:36.238Z,17.80
2023-04-29T13:30:09.840Z,17.70
2023-04-29T13:32:46.471Z,18.00
2023-04-29T13:35:25.799Z,18.20
2023-04-29T13:37:57.932Z,18.50
2023-04-29T13:40:30.846Z,18.70
2023-04-29T13:43:06.265Z,19.00
2023-04-29T13:45:42.835Z,18.90
2023-04-29T13:48:50.228Z,18.80
2023-04-29T13:54:37.414Z,19.00
2023-04-29T13:59:41.569Z,19.30
2023-04-29T14:02:23.113Z,19.40
2023-04-29T14:04:57.200Z,19.30
2023-04-29T14:07:29.790Z,19.30
2023-04-29T14:10:02.760Z,19.10
2023-04-29T14:12:35.505Z,18.90
2023-04-29T14:15:08.038Z,18.90
2023-04-29T14:17:40.746Z,18.90
2023-04-29T14:20:13.469Z,18.90
2023-04-29T14:22:45.726Z,18.90
2023-04-29T14:25:18.553Z,19.10
2023-04-29T14:27:50.844Z,19.20
2023-04-29T14:30:23.231Z,19.10
2023-04-29T14:32:56.349Z,18.90
2023-04-29T14:35:28.830Z,18.80
2023-04-29T14:38:01.503Z,18.60
2023-04-29T14:40:33.655Z,18.60
2023-04-29T14:43:06.721Z,18.70
2023-04-29T14:45:38.998Z,18.60
2023-04-29T14:48:12.388Z,18.50
2023-04-29T14:50:44.475Z,18.20
2023-04-29T14:53:16.632Z,18.10
2023-04-29T14:55:52.621Z,18.00
2023-04-29T14:58:24.919Z,17.90
2023-04-29T15:00:57.294Z,17.90
2023-04-29T15:03:29.500Z,18.00
2023-04-29T15:06:04.065Z,17.90
2023-04-29T15:08:38.430Z,17.80
2023-04-29T15:11:11.768Z,17.70
2023-04-29T15:13:44.478Z,17.40
2023-04-29T15:16:17.094Z,17.10
2023-04-29T15:18:49.391Z,17.00
2023-04-29T15:21:22.315Z,16.90
2023-04-29T15:23:54.799Z,16.70
2023-04-29T15:26:27.457Z,16.70
2023-04-29T15:28:59.914Z,16.60
2023-04-29T15:31:32.895Z,16.60
2023-04-29T15:34:05.244Z,16.40
2023-04-29T15:36:37.464Z,16.30
2023-04-29T15:39:11.113Z,16.20
2023-04-29T15:41:44.047Z,16.10
2023-04-29T15:44:16.259Z,16.20
2023-04-29T15:46:48.794Z,16.10
2023-04-29T15:49:22.775Z,16.10
2023-04-29T15:52:01.341Z,16.10
2023-04-29T15:54:36.614Z,16.10
2023-04-29T15:57:09.708Z,16.10
2023-04-29T15:59:42.970Z,16.10
2023-04-29T16:02:16.188Z,16.10
2023-04-29T16:04:48.980Z,15.90
2023-04-29T16:07:21.240Z,15.80
2023-04-29T16:09:53.632Z,15.70
2023-04-29T16:12:26.634Z,15.70
2023-04-29T16:14:59.494Z,15.60
2023-04-29T16:17:34.856Z,15.60
2023-04-29T16:20:08.221Z,15.60
2023-04-29T16:22:40.732Z,15.50
2023-04-29T16:25:13.325Z,15.40
2023-04-29T16:27:45.835Z,15.40
2023-04-29T16:30:18.443Z,15.40
2023-04-29T16:32:52.172Z,15.40
2023-04-29T16:35:25.956Z,15.40
2023-04-29T16:38:00.016Z,15.40
2023-04-29T16:40:32.728Z,15.40
2023-04-29T16:43:05.091Z,15.40
2023-04-29T16:45:37.589Z,15.40
2023-04-29T16:48:10.214Z,15.30
2023-04-29T16:50:42.391Z,15.20
2023-04-29T16:53:14.797Z,15.20
2023-04-29T16:55:47.069Z,15.10
2023-04-29T16:58:20.452Z,15.10
2023-04-29T17:00:55.308Z,15.10
2023-04-29T17:03:28.104Z,15.00
2023-04-29T17:06:00.696Z,15.00
2023-04-29T17:08:33.843Z,14.90
2023-04-29T17:11:06.507Z,14.90
2023-04-29T17:13:39.542Z,14.80
2023-04-29T17:16:14.432Z,14.90
2023-04-29T17:18:47.779Z,14.80
2023-04-29T17:21:23.260Z,14.80
2023-04-29T17:23:59.090Z,14.80
2023-04-29T17:26:31.625Z,14.70
2023-04-29T17:29:04.722Z,14.70
2023-04-29T17:31:46.087Z,14.70
2023-04-29T17:34:29.060Z,14.60
2023-04-29T17:37:02.483Z,14.60
2023-04-29T17:39:36.044Z,14.50
2023-04-29T17:42:08.278Z,14.50
2023-04-29T17:44:40.632Z,14.50
2023-04-29T17:47:13.383Z,14.40
2023-04-29T17:49:47.478Z,14.40
2023-04-29T17:52:23.446Z,14.40
2023-04-29T17:54:55.864Z,14.40
2023-04-29T17:57:31.013Z,14.30
2023-04-29T18:00:04.849Z,14.30
2023-04-29T18:02:39.557Z,14.30
2023-04-29T18:05:12.098Z,14.30
2023-04-29T18:07:45.446Z,14.20
2023-04-29T18:10:17.857Z,14.20
2023-04-29T18:12:50.134Z,14.20
2023-04-29T18:15:23.205Z,14.20
2023-04-29T18:17:56.188Z,14.20
2023-04-29T18:20:29.463Z,14.20
2023-04-29T18:23:02.970Z,14.20
2023-04-29T18:25:39.553Z,14.20
2023-04-29T18:28:23.646Z,14.10
2023-04-29T18:30:57.773Z,14.00
2023-04-29T18:33:32.031Z,13.90
2023-04-29T18:36:05.110Z,13.80
2023-04-29T18:38:38.255Z,13.70
2023-04-29T18:41:12.291Z,13.70
2023-04-29T18:43:46.055Z,13.60
2023-04-29T18:46:18.911Z,13.50
2023-04-29T18:48:51.559Z,13.40
2023-04-29T18:51:24.404Z,13.40
2023-04-29T18:53:57.443Z,13.30
2023-04-29T18:56:30.171Z,13.30
2023-04-29T18:59:02.916Z,13.20
2023-04-29T19:01:35.728Z,13.10
2023-04-29T19:04:09.966Z,13.10
2023-04-29T19:06:43.335Z,13.10
2023-04-29T19:09:16.304Z,13.00
2023-04-29T19:11:48.984Z,12.90
2023-04-29T19:14:23.144Z,12.90
2023-04-29T19:16:56.333Z,12.80
2023-04-29T19:19:30.556Z,12.80
2023-04-29T19:22:05.642Z,12.70
2023-04-29T19:24:39.732Z,12.70
2023-04-29T19:27:14.457Z,12.60
2023-04-29T19:29:47.760Z,12.50
2023-04-29T19:32:20.511Z,12.50
2023-04-29T19:34:53.693Z,12.40
2023-04-29T19:37:26.855Z,12.40
2023-04-29T19:40:00.172Z,12.30
2023-04-29T19:42:33.590Z,12.30
2023-04-29T19:45:07.897Z,12.20
2023-04-29T19:47:41.680Z,12.20
2023-04-29T19:50:15.357Z,12.10
2023-04-29T19:52:48.079Z,12.00
2023-04-29T19:55:20.883Z,12.00
2023-04-29T19:57:53.848Z,11.90
2023-04-29T20:00:27.754Z,11.90
2023-04-29T20:03:01.464Z,11.80
2023-04-29T20:05:34.669Z,11.80
2023-04-29T20:08:07.491Z,11.80
2023-04-29T20:10:42.008Z,11.70
2023-04-29T20:13:15.863Z,11.70
2023-04-29T20:15:49.031Z,11.70
2023-04-29T20:18:22.675Z,11.70
2023-04-29T20:20:56.680Z,11.70
2023-04-29T20:23:29.568Z,11.70
2023-04-29T20:26:04.044Z,11.70
2023-04-29T20:28:36.904Z,11.70
2023-04-29T20:31:09.583Z,11.70
2023-04-29T20:33:42.151Z,11.70
2023-04-29T20:36:14.978Z,11.70
2023-04-29T20:38:49.541Z,11.70
2023-04-29T20:41:22.358Z,11.80
2023-04-29T20:43:58.749Z,11.80
2023-04-29T20:46:31.324Z,11.80
2023-04-29T20:49:05.457Z,11.80
2023-04-29T20:51:38.002Z,11.80
2023-04-29T20:54:10.869Z,11.80
2023-04-29T20:56:43.747Z,11.80
2023-04-29T20:59:16.904Z,11.80
2023-04-29T21:01:49.424Z,11.80
2023-04-29T21:04:23.583Z,11.80
2023-04-29T21:06:56.539Z,11.80
2023-04-29T21:09:29.335Z,11.80
2023-04-29T21:12:02.904Z,11.90
2023-04-29T21:14:38.985Z,11.90
2023-04-29T21:17:12.531Z,11.90
2023-04-29T21:19:45.477Z,11.90
2023-04-29T21:22:18.184Z,11.90
2023-04-29T21:24:50.699Z,11.90
2023-04-29T21:27:23.204Z,12.00
2023-04-29T21:29:55.858Z,12.00
2023-04-29T21:32:29.640Z,12.00
2023-04-29T21:35:05.256Z,12.00
2023-04-29T21:37:38.472Z,12.00
2023-04-29T21:40:12.220Z,12.00
2023-04-29T21:42:45.782Z,12.00
2023-04-29T21:45:18.463Z,12.00
2023-04-29T21:47:52.834Z,12.00
2023-04-29T21:50:28.017Z,12.00
2023-04-29T21:53:00.792Z,12.00
2023-04-29T21:55:33.516Z,12.00
2023-04-29T21:58:06.549Z,12.00
2023-04-29T22:00:41.397Z,12.00
2023-04-29T22:03:22.800Z,12.00
2023-04-29T22:05:56.019Z,12.00
2023-04-29T22:08:28.641Z,12.00
2023-04-29T22:11:01.207Z,12.00
2023-04-29T22:13:33.821Z,12.00
2023-04-29T22:16:06.747Z,12.00
2023-04-29T22:18:39.888Z,12.00
2023-04-29T22:21:12.197Z,12.00
2023-04-29T22:23:45.089Z,12.00
2023-04-29T22:26:18.648Z,12.00
2023-04-29T22:28:52.146Z,12.00
2023-04-29T22:31:24.812Z,12.00
2023-04-29T22:33:57.963Z,12.00
2023-04-29T22:36:31.662Z,12.00
2023-04-29T22:39:04.187Z,12.00
2023-04-29T22:41:37.154Z,12.00
2023-04-29T22:44:09.721Z,12.00
2023-04-29T22:46:42.340Z,12.00
2023-04-29T22:49:14.573Z,12.00
2023-04-29T22:51:46.950Z,11.90
2023-04-29T22:54:19.092Z,11.90
2023-04-29T22:56:51.407Z,11.90
2023-04-29T22:59:23.858Z,11.90
2023-04-29T23:01:56.256Z,11.90
2023-04-29T23:04:28.570Z,11.90
2023-04-29T23:07:01.744Z,11.90
2023-04-29T23:09:33.908Z,11.90
2023-04-29T23:12:06.264Z,11.90
2023-04-29T23:14:38.327Z,11.90
2023-04-29T23:17:11.138Z,11.90
2023-04-29T23:19:43.593Z,11.90
2023-04-29T23:22:17.057Z,11.90
2023-04-29T23:24:49.423Z,11.90
2023-04-29T23:27:21.886Z,11.90
2023-04-29T23:29:54.101Z,11.80
2023-04-29T23:32:26.408Z,11.80
2023-04-29T23:34:58.664Z,11.80
2023-04-29T23:37:30.986Z,11.80
2023-04-29T23:40:04.754Z,11.80
2023-04-29T23:42:37.564Z,11.80
2023-04-29T23:45:10.179Z,11.80
2023-04-29T23:47:42.579Z,11.80
2023-04-29T23:50:14.971Z,11.80
2023-04-29T23:52:47.185Z,11.70
2023-04-29T23:55:20.639Z,11.70
2023-04-29T23:57:52.655Z,11.70
